Kinsley Ranch, Arizona
Current Conditions -  °F | °C
As of 5:54 AM on Saturday 22 Nov 2014 (Local Time) from KOLS Reporting Station
Clear Clear  
Wind Chill: 29°   Ceiling: Unl
Heat Index: 33°   Visibility: 10mi
Dew Point: 29°   Wind: 5mph
Humidity: 85%   Direction: 70°ENE
Pressure: 30.07"   Gusts: NA
Location:  31.6134°N, 110.959°W
Report Text: KOLS 221254Z AUTO 07004KT 10SM CLR 01/M02 A3007 RMK AO2 SLP162 T00061017
Loading
Personal Weather Stations






























Interactive Weather Map New forecast layout! Learn more

10-Day Weather Forecast

Advertisements
Track Severe Weather on mobile